C6062 TJBQ-TJBQ
Flight info
| Callsign | C6062 |
|---|---|
| Flight time | 0h 7m |
| Altitude | 2000 |
| Route | VFR |
| Aircraft | H60/M-VGD/C |
Departure
| Time | 2026-04-26 19:03 |
|---|---|
| Airport | Rafael Hernández International Airport (TJBQ) |
Arrival
| Time | 2026-04-26 19:10 |
|---|---|
| Airport | Rafael Hernández International Airport (TJBQ) |
| Time | Latitude | Longitude | Altitude | Speed | Heading |
|---|---|---|---|---|---|
| 2026-04-26 18:35 | 18.67330 | -66.90585 | 108 ft | 1 kts | 205° |
| 2026-04-26 18:35 | 18.67331 | -66.90585 | 109 ft | 0 kts | 205° |
| 2026-04-26 18:36 | 18.67316 | -66.90592 | 114 ft | 9 kts | 205° |
| 2026-04-26 18:36 | 18.67203 | -66.90647 | 113 ft | 28 kts | 205° |
| 2026-04-26 18:36 | 18.66961 | -66.90794 | 114 ft | 50 kts | 211° |
| 2026-04-26 18:36 | 18.66660 | -66.90979 | 112 ft | 50 kts | 202° |
| 2026-04-26 18:37 | 18.66327 | -66.91089 | 111 ft | 50 kts | 197° |
| 2026-04-26 18:37 | 18.65992 | -66.91193 | 111 ft | 50 kts | 183° |
| 2026-04-26 18:37 | 18.65642 | -66.91189 | 112 ft | 50 kts | 176° |
| 2026-04-26 18:37 | 18.65297 | -66.91136 | 110 ft | 50 kts | 167° |
| 2026-04-26 18:38 | 18.65005 | -66.91066 | 108 ft | 20 kts | 165° |
| 2026-04-26 18:38 | 18.64880 | -66.90999 | 107 ft | 20 kts | 151° |
| 2026-04-26 18:38 | 18.64756 | -66.90928 | 108 ft | 20 kts | 150° |
| 2026-04-26 18:38 | 18.64646 | -66.90837 | 109 ft | 20 kts | 151° |
| 2026-04-26 18:39 | 18.64510 | -66.90809 | 112 ft | 20 kts | 180° |
| 2026-04-26 18:39 | 18.64373 | -66.90829 | 117 ft | 20 kts | 189° |
| 2026-04-26 18:39 | 18.64235 | -66.90841 | 116 ft | 20 kts | 168° |
| 2026-04-26 18:39 | 18.64122 | -66.90754 | 104 ft | 20 kts | 128° |
| 2026-04-26 18:40 | 18.64037 | -66.90637 | 106 ft | 20 kts | 128° |
| 2026-04-26 18:40 | 18.63951 | -66.90520 | 107 ft | 20 kts | 128° |
| 2026-04-26 18:40 | 18.63865 | -66.90403 | 107 ft | 20 kts | 128° |
| 2026-04-26 18:40 | 18.63778 | -66.90287 | 109 ft | 19 kts | 128° |
| 2026-04-26 18:41 | 18.63675 | -66.90148 | 110 ft | 35 kts | 128° |
| 2026-04-26 18:41 | 18.63480 | -66.89945 | 143 ft | 40 kts | 138° |
| 2026-04-26 18:41 | 18.63360 | -66.89830 | 98 ft | 21 kts | 138° |
| 2026-04-26 18:41 | 18.63214 | -66.89693 | 108 ft | 30 kts | 138° |
| 2026-04-26 18:42 | 18.63044 | -66.89569 | 119 ft | 30 kts | 155° |
| 2026-04-26 18:42 | 18.62969 | -66.89531 | 100 ft | 11 kts | 155° |
| 2026-04-26 18:42 | 18.62849 | -66.89449 | 106 ft | 30 kts | 145° |
| 2026-04-26 18:42 | 18.62713 | -66.89352 | 99 ft | 20 kts | 145° |
| 2026-04-26 18:43 | 18.62597 | -66.89268 | 98 ft | 20 kts | 145° |
| 2026-04-26 18:43 | 18.62514 | -66.89152 | 101 ft | 20 kts | 115° |
| 2026-04-26 18:43 | 18.62455 | -66.89018 | 103 ft | 20 kts | 116° |
| 2026-04-26 18:43 | 18.62414 | -66.88877 | 101 ft | 20 kts | 102° |
| 2026-04-26 18:44 | 18.62384 | -66.88737 | 101 ft | 18 kts | 102° |
| 2026-04-26 18:44 | 18.62354 | -66.88594 | 113 ft | 20 kts | 102° |
| 2026-04-26 18:44 | 18.62308 | -66.88446 | 81 ft | 26 kts | 102° |
| 2026-04-26 18:44 | 18.62237 | -66.88256 | 91 ft | 30 kts | 102° |
| 2026-04-26 18:45 | 18.62147 | -66.88004 | 106 ft | 53 kts | 102° |
| 2026-04-26 18:45 | 18.62043 | -66.87668 | 175 ft | 75 kts | 102° |
| 2026-04-26 18:45 | 18.61889 | -66.87189 | 163 ft | 69 kts | 102° |
| 2026-04-26 18:45 | 18.61705 | -66.86757 | 44 ft | 51 kts | 102° |
| 2026-04-26 18:46 | 18.61563 | -66.86374 | 271 ft | 55 kts | 102° |
| 2026-04-26 18:46 | 18.61457 | -66.86062 | 567 ft | 72 kts | 104° |
| 2026-04-26 18:46 | 18.61263 | -66.85617 | 422 ft | 62 kts | 104° |
| 2026-04-26 18:46 | 18.61090 | -66.85250 | 449 ft | 50 kts | 95° |
| 2026-04-26 18:47 | 18.61141 | -66.84950 | 460 ft | 33 kts | 65° |
| 2026-04-26 18:47 | 18.61218 | -66.84798 | 458 ft | 13 kts | 65° |
| 2026-04-26 18:47 | 18.61128 | -66.84696 | 465 ft | 39 kts | 106° |
| 2026-04-26 18:47 | 18.61189 | -66.84410 | 482 ft | 61 kts | 73° |
| 2026-04-26 18:48 | 18.61192 | -66.83997 | 486 ft | 38 kts | 173° |
| 2026-04-26 18:48 | 18.61067 | -66.83932 | 452 ft | 30 kts | 204° |
| 2026-04-26 18:48 | 18.60859 | -66.84059 | 471 ft | 33 kts | 206° |
| 2026-04-26 18:48 | 18.60643 | -66.84235 | 479 ft | 49 kts | 240° |
| 2026-04-26 18:49 | 18.60432 | -66.84619 | 479 ft | 67 kts | 256° |
| 2026-04-26 18:49 | 18.60370 | -66.84896 | 460 ft | 5 kts | 317° |
| 2026-04-26 18:49 | 18.60351 | -66.84905 | 457 ft | 12 kts | 23° |
| 2026-04-26 18:49 | 18.60224 | -66.84970 | 473 ft | 19 kts | 124° |
| 2026-04-26 18:50 | 18.60040 | -66.84935 | 476 ft | 36 kts | 159° |
| 2026-04-26 18:50 | 18.59856 | -66.84880 | 461 ft | 22 kts | 85° |
| 2026-04-26 18:50 | 18.59908 | -66.84795 | 469 ft | 16 kts | 36° |
| 2026-04-26 18:50 | 18.60137 | -66.84629 | 484 ft | 65 kts | 37° |
| 2026-04-26 18:51 | 18.60481 | -66.84313 | 481 ft | 63 kts | 12° |
| 2026-04-26 18:51 | 18.60928 | -66.84021 | 464 ft | 82 kts | 359° |
| 2026-04-26 18:51 | 18.61448 | -66.83952 | 464 ft | 74 kts | 18° |
| 2026-04-26 18:51 | 18.61600 | -66.83561 | 471 ft | 50 kts | 156° |
| 2026-04-26 18:52 | 18.61540 | -66.83551 | 457 ft | 11 kts | 214° |
| 2026-04-26 18:52 | 18.61606 | -66.83475 | 470 ft | 10 kts | 215° |
| 2026-04-26 18:52 | 18.61612 | -66.83468 | 473 ft | 2 kts | 223° |
| 2026-04-26 18:52 | 18.61623 | -66.83456 | 470 ft | 2 kts | 234° |
| 2026-04-26 18:53 | 18.61632 | -66.83443 | 472 ft | 2 kts | 231° |
| 2026-04-26 18:53 | 18.61639 | -66.83433 | 472 ft | 2 kts | 231° |
| 2026-04-26 18:53 | 18.61647 | -66.83423 | 469 ft | 2 kts | 231° |
| 2026-04-26 18:53 | 18.61608 | -66.83486 | 408 ft | 29 kts | 237° |
| 2026-04-26 18:54 | 18.61467 | -66.83716 | 323 ft | 45 kts | 237° |
| 2026-04-26 18:54 | 18.61249 | -66.83953 | 280 ft | 35 kts | 237° |
| 2026-04-26 18:54 | 18.61178 | -66.84052 | 209 ft | 2 kts | 237° |
| 2026-04-26 18:54 | 18.61160 | -66.84057 | 241 ft | 10 kts | 236° |
| 2026-04-26 18:55 | 18.61083 | -66.84145 | 369 ft | 20 kts | 236° |
| 2026-04-26 18:55 | 18.61016 | -66.84221 | 297 ft | 7 kts | 230° |
| 2026-04-26 18:55 | 18.60976 | -66.84276 | 247 ft | 11 kts | 230° |
| 2026-04-26 18:55 | 18.60931 | -66.84337 | 204 ft | 5 kts | 240° |
| 2026-04-26 18:56 | 18.60917 | -66.84368 | 139 ft | 5 kts | 244° |
| 2026-04-26 18:56 | 18.60907 | -66.84393 | 132 ft | 2 kts | 252° |
| 2026-04-26 18:56 | 18.60903 | -66.84406 | 127 ft | 3 kts | 252° |
| 2026-04-26 18:56 | 18.60900 | -66.84417 | 127 ft | 0 kts | 249° |
| 2026-04-26 18:57 | 18.60903 | -66.84418 | 124 ft | 0 kts | 245° |
| 2026-04-26 18:57 | 18.60902 | -66.84418 | 118 ft | 0 kts | 245° |
| 2026-04-26 18:57 | 18.60903 | -66.84425 | 107 ft | 0 kts | 245° |
| 2026-04-26 18:57 | 18.60902 | -66.84426 | 100 ft | 1 kts | 245° |
| 2026-04-26 18:58 | 18.60902 | -66.84427 | 88 ft | 0 kts | 245° |
| 2026-04-26 18:58 | 18.60904 | -66.84430 | 85 ft | 0 kts | 245° |
| 2026-04-26 18:58 | 18.60902 | -66.84430 | 93 ft | 0 kts | 245° |
| 2026-04-26 18:58 | 18.60901 | -66.84431 | 104 ft | 0 kts | 246° |
| 2026-04-26 18:59 | 18.60901 | -66.84432 | 136 ft | 0 kts | 246° |
| 2026-04-26 18:59 | 18.60900 | -66.84433 | 155 ft | 0 kts | 245° |
| 2026-04-26 18:59 | 18.60882 | -66.84474 | 330 ft | 20 kts | 245° |
| 2026-04-26 19:00 | 18.60780 | -66.84826 | 558 ft | 80 kts | 268° |
| 2026-04-26 19:00 | 18.60762 | -66.85373 | 799 ft | 72 kts | 306° |
| 2026-04-26 19:00 | 18.61105 | -66.85749 | 709 ft | 83 kts | 338° |
| 2026-04-26 19:00 | 18.61665 | -66.85710 | 712 ft | 91 kts | 32° |
| 2026-04-26 19:01 | 18.61917 | -66.85099 | 717 ft | 99 kts | 93° |
| 2026-04-26 19:01 | 18.61650 | -66.84464 | 725 ft | 93 kts | 143° |
| 2026-04-26 19:01 | 18.61121 | -66.84105 | 717 ft | 90 kts | 159° |
| 2026-04-26 19:01 | 18.60533 | -66.83874 | 716 ft | 89 kts | 178° |
| 2026-04-26 19:02 | 18.59932 | -66.83971 | 723 ft | 87 kts | 205° |
| 2026-04-26 19:02 | 18.59401 | -66.84353 | 700 ft | 103 kts | 236° |
| 2026-04-26 19:02 | 18.59046 | -66.85078 | 712 ft | 117 kts | 249° |
| 2026-04-26 19:02 | 18.58827 | -66.85621 | 650 ft | 127 kts | 250° |
| 2026-04-26 19:03 | 18.58327 | -66.86811 | 645 ft | 139 kts | 250° |
| 2026-04-26 19:03 | 18.57957 | -66.87762 | 903 ft | 146 kts | 252° |
| 2026-04-26 19:03 | 18.57596 | -66.88737 | 637 ft | 138 kts | 252° |
| 2026-04-26 19:03 | 18.57268 | -66.89638 | 461 ft | 144 kts | 252° |
| 2026-04-26 19:04 | 18.56926 | -66.90664 | 487 ft | 140 kts | 252° |
| 2026-04-26 19:04 | 18.56622 | -66.91630 | 512 ft | 141 kts | 252° |
| 2026-04-26 19:04 | 18.56318 | -66.92592 | 512 ft | 133 kts | 252° |
| 2026-04-26 19:04 | 18.56037 | -66.93540 | 521 ft | 138 kts | 252° |
| 2026-04-26 19:05 | 18.55450 | -66.95421 | 533 ft | 133 kts | 252° |
| 2026-04-26 19:05 | 18.55151 | -66.96330 | 786 ft | 133 kts | 252° |
| 2026-04-26 19:05 | 18.54855 | -66.97267 | 771 ft | 133 kts | 252° |
| 2026-04-26 19:06 | 18.54558 | -66.98197 | 772 ft | 135 kts | 252° |
| 2026-04-26 19:06 | 18.54269 | -66.99110 | 773 ft | 130 kts | 252° |
| 2026-04-26 19:06 | 18.53972 | -67.00033 | 770 ft | 131 kts | 252° |
| 2026-04-26 19:06 | 18.53680 | -67.00932 | 776 ft | 133 kts | 252° |
| 2026-04-26 19:07 | 18.53377 | -67.01859 | 772 ft | 135 kts | 252° |
| 2026-04-26 19:07 | 18.53088 | -67.02770 | 775 ft | 129 kts | 252° |
| 2026-04-26 19:07 | 18.52803 | -67.03667 | 776 ft | 129 kts | 252° |
| 2026-04-26 19:07 | 18.52514 | -67.04575 | 775 ft | 131 kts | 252° |
| 2026-04-26 19:08 | 18.52214 | -67.05485 | 774 ft | 132 kts | 252° |
| 2026-04-26 19:08 | 18.51918 | -67.06405 | 776 ft | 134 kts | 252° |
| 2026-04-26 19:08 | 18.51590 | -67.07307 | 779 ft | 127 kts | 251° |
| 2026-04-26 19:08 | 18.51240 | -67.08187 | 779 ft | 133 kts | 251° |
| 2026-04-26 19:09 | 18.50914 | -67.09107 | 777 ft | 134 kts | 250° |
| 2026-04-26 19:09 | 18.50566 | -67.10021 | 692 ft | 135 kts | 251° |
| 2026-04-26 19:09 | 18.50208 | -67.10932 | 542 ft | 131 kts | 250° |
| 2026-04-26 19:09 | 18.49922 | -67.11835 | 429 ft | 129 kts | 253° |
| 2026-04-26 19:10 | 18.49657 | -67.12688 | 330 ft | 112 kts | 254° |
| 2026-04-26 19:10 | 18.49457 | -67.13359 | 338 ft | 73 kts | 254° |
| 2026-04-26 19:10 | 18.49408 | -67.13572 | 251 ft | 8 kts | 346° |
| 2026-04-26 19:10 | 18.49459 | -67.13560 | 228 ft | 3 kts | 10° |
| 2026-04-26 19:11 | 18.49468 | -67.13551 | 225 ft | 2 kts | 9° |
| 2026-04-26 19:11 | 18.49467 | -67.13490 | 236 ft | 16 kts | 74° |
| 2026-04-26 19:11 | 18.49498 | -67.13404 | 233 ft | 3 kts | 73° |
| 2026-04-26 19:11 | 18.49495 | -67.13409 | 235 ft | 2 kts | 73° |
| 2026-04-26 19:12 | 18.49515 | -67.13341 | 286 ft | 21 kts | 73° |
| 2026-04-26 19:12 | 18.49597 | -67.13192 | 339 ft | 28 kts | 36° |
| 2026-04-26 19:12 | 18.49709 | -67.13092 | 310 ft | 7 kts | 71° |
| 2026-04-26 19:12 | 18.49712 | -67.13033 | 291 ft | 9 kts | 133° |
| 2026-04-26 19:13 | 18.49691 | -67.12986 | 277 ft | 9 kts | 176° |
| 2026-04-26 19:13 | 18.49676 | -67.12977 | 231 ft | 1 kts | 161° |
| 2026-04-26 19:13 | 18.49675 | -67.12977 | 214 ft | 0 kts | 159° |